sensor_id;sensor_type;location;lat;lon;timestamp;pressure;altitude;pressure_sealevel;temperature;humidity
42761;BME280;31672;47.638;19.026;2023-07-30T00:00:51;99664.09;;;21.49;68.47
42761;BME280;31672;47.638;19.026;2023-07-30T00:05:55;99669.94;;;21.41;68.58
42761;BME280;31672;47.638;19.026;2023-07-30T00:10:59;99672.88;;;21.40;68.33
42761;BME280;31672;47.638;19.026;2023-07-30T00:16:03;99663.94;;;21.39;68.18
42761;BME280;31672;47.638;19.026;2023-07-30T00:21:06;99672.44;;;21.48;67.99
42761;BME280;31672;47.638;19.026;2023-07-30T00:26:10;99669.28;;;21.56;67.13
42761;BME280;31672;47.638;19.026;2023-07-30T00:31:14;99680.78;;;21.68;66.17
42761;BME280;31672;47.638;19.026;2023-07-30T00:36:17;99668.47;;;21.77;65.31
42761;BME280;31672;47.638;19.026;2023-07-30T00:41:21;99664.22;;;21.86;64.66
42761;BME280;31672;47.638;19.026;2023-07-30T00:46:25;99653.78;;;21.95;64.47
42761;BME280;31672;47.638;19.026;2023-07-30T00:51:31;99647.84;;;21.98;64.64
42761;BME280;31672;47.638;19.026;2023-07-30T00:56:35;99645.44;;;22.02;64.48
42761;BME280;31672;47.638;19.026;2023-07-30T01:01:42;99643.56;;;22.02;64.75
42761;BME280;31672;47.638;19.026;2023-07-30T01:06:46;99641.94;;;22.01;65.20
42761;BME280;31672;47.638;19.026;2023-07-30T01:11:49;99631.66;;;22.03;65.80
42761;BME280;31672;47.638;19.026;2023-07-30T01:16:54;99615.97;;;22.05;65.59
42761;BME280;31672;47.638;19.026;2023-07-30T01:21:58;99619.00;;;22.09;65.97
42761;BME280;31672;47.638;19.026;2023-07-30T01:27:07;99617.69;;;22.11;66.03
42761;BME280;31672;47.638;19.026;2023-07-30T01:32:11;99615.25;;;22.10;66.43
42761;BME280;31672;47.638;19.026;2023-07-30T01:37:17;99605.72;;;22.07;66.86
42761;BME280;31672;47.638;19.026;2023-07-30T01:42:21;99595.94;;;22.01;67.07
42761;BME280;31672;47.638;19.026;2023-07-30T01:47:24;99591.25;;;21.91;67.58
42761;BME280;31672;47.638;19.026;2023-07-30T01:52:28;99588.75;;;21.85;68.14
42761;BME280;31672;47.638;19.026;2023-07-30T01:57:32;99583.78;;;21.77;68.52
42761;BME280;31672;47.638;19.026;2023-07-30T02:02:36;99581.88;;;21.72;68.94
42761;BME280;31672;47.638;19.026;2023-07-30T02:07:39;99583.72;;;21.67;69.84
42761;BME280;31672;47.638;19.026;2023-07-30T02:12:43;99599.31;;;21.59;70.34
42761;BME280;31672;47.638;19.026;2023-07-30T02:17:46;99591.09;;;21.49;70.57
42761;BME280;31672;47.638;19.026;2023-07-30T02:22:50;99582.94;;;21.44;70.87
42761;BME280;31672;47.638;19.026;2023-07-30T02:27:54;99585.38;;;21.46;71.07
42761;BME280;31672;47.638;19.026;2023-07-30T02:32:57;99587.00;;;21.47;71.53
42761;BME280;31672;47.638;19.026;2023-07-30T02:38:01;99609.97;;;21.44;71.69
42761;BME280;31672;47.638;19.026;2023-07-30T02:43:05;99610.22;;;21.43;72.10
42761;BME280;31672;47.638;19.026;2023-07-30T02:48:08;99599.91;;;21.40;72.22
42761;BME280;31672;47.638;19.026;2023-07-30T02:53:12;99621.22;;;21.36;72.64
42761;BME280;31672;47.638;19.026;2023-07-30T02:58:15;99609.03;;;21.33;73.07
42761;BME280;31672;47.638;19.026;2023-07-30T03:03:19;99613.06;;;21.31;73.07
42761;BME280;31672;47.638;19.026;2023-07-30T03:08:23;99616.72;;;21.25;73.33
42761;BME280;31672;47.638;19.026;2023-07-30T03:13:27;99617.75;;;21.19;73.67
42761;BME280;31672;47.638;19.026;2023-07-30T03:18:31;99616.34;;;21.16;74.04
42761;BME280;31672;47.638;19.026;2023-07-30T03:23:34;99616.53;;;21.09;74.25
42761;BME280;31672;47.638;19.026;2023-07-30T03:28:37;99613.13;;;20.97;75.08
42761;BME280;31672;47.638;19.026;2023-07-30T03:33:43;99616.28;;;20.89;76.62
42761;BME280;31672;47.638;19.026;2023-07-30T03:38:47;99621.28;;;20.80;76.90
42761;BME280;31672;47.638;19.026;2023-07-30T03:43:51;99626.94;;;20.79;77.02
42761;BME280;31672;47.638;19.026;2023-07-30T03:48:54;99633.16;;;20.79;76.97
42761;BME280;31672;47.638;19.026;2023-07-30T03:53:58;99626.66;;;20.80;77.51
42761;BME280;31672;47.638;19.026;2023-07-30T03:59:02;99626.94;;;20.79;78.16
42761;BME280;31672;47.638;19.026;2023-07-30T04:04:05;99636.19;;;20.83;78.92
42761;BME280;31672;47.638;19.026;2023-07-30T04:09:09;99645.91;;;20.84;79.04
42761;BME280;31672;47.638;19.026;2023-07-30T04:14:12;99647.88;;;20.89;79.19
42761;BME280;31672;47.638;19.026;2023-07-30T04:19:16;99639.84;;;20.94;79.33
42761;BME280;31672;47.638;19.026;2023-07-30T04:24:19;99654.78;;;21.01;79.31
42761;BME280;31672;47.638;19.026;2023-07-30T04:29:23;99648.41;;;21.07;78.79
42761;BME280;31672;47.638;19.026;2023-07-30T04:34:27;99640.59;;;21.11;79.45
42761;BME280;31672;47.638;19.026;2023-07-30T04:39:32;99641.19;;;21.13;79.31
42761;BME280;31672;47.638;19.026;2023-07-30T04:44:35;99643.69;;;21.20;79.71
42761;BME280;31672;47.638;19.026;2023-07-30T04:49:39;99641.88;;;21.25;80.14
42761;BME280;31672;47.638;19.026;2023-07-30T04:54:43;99649.56;;;21.33;80.27
42761;BME280;31672;47.638;19.026;2023-07-30T04:59:47;99661.84;;;21.41;79.95
42761;BME280;31672;47.638;19.026;2023-07-30T05:04:51;99664.56;;;21.46;80.14
42761;BME280;31672;47.638;19.026;2023-07-30T05:09:54;99664.38;;;21.53;80.08
42761;BME280;31672;47.638;19.026;2023-07-30T05:14:58;99663.63;;;21.57;80.02
42761;BME280;31672;47.638;19.026;2023-07-30T05:20:02;99670.72;;;21.63;79.63
42761;BME280;31672;47.638;19.026;2023-07-30T05:25:06;99655.63;;;21.68;79.96
42761;BME280;31672;47.638;19.026;2023-07-30T05:30:11;99646.50;;;21.74;80.05
42761;BME280;31672;47.638;19.026;2023-07-30T05:35:14;99651.41;;;21.77;79.04
42761;BME280;31672;47.638;19.026;2023-07-30T05:40:18;99653.41;;;21.86;77.74
42761;BME280;31672;47.638;19.026;2023-07-30T05:45:22;99649.72;;;21.98;78.84
42761;BME280;31672;47.638;19.026;2023-07-30T05:50:25;99653.03;;;22.05;78.97
42761;BME280;31672;47.638;19.026;2023-07-30T05:55:29;99647.44;;;22.11;79.44
42761;BME280;31672;47.638;19.026;2023-07-30T06:00:33;99650.75;;;22.18;79.29
42761;BME280;31672;47.638;19.026;2023-07-30T06:05:41;99640.28;;;22.27;79.00
42761;BME280;31672;47.638;19.026;2023-07-30T06:10:45;99651.75;;;22.39;78.67
42761;BME280;31672;47.638;19.026;2023-07-30T06:15:50;99645.59;;;22.49;75.58
42761;BME280;31672;47.638;19.026;2023-07-30T06:20:54;99649.44;;;22.58;75.80
42761;BME280;31672;47.638;19.026;2023-07-30T06:25:57;99639.78;;;22.67;74.48
42761;BME280;31672;47.638;19.026;2023-07-30T06:31:02;99642.84;;;22.81;72.25
42761;BME280;31672;47.638;19.026;2023-07-30T06:36:06;99642.13;;;22.96;71.99
42761;BME280;31672;47.638;19.026;2023-07-30T06:41:09;99635.41;;;23.09;71.94
42761;BME280;31672;47.638;19.026;2023-07-30T06:46:13;99638.50;;;23.28;71.13
42761;BME280;31672;47.638;19.026;2023-07-30T06:51:19;99640.75;;;23.46;70.44
42761;BME280;31672;47.638;19.026;2023-07-30T06:56:23;99641.63;;;23.62;69.59
42761;BME280;31672;47.638;19.026;2023-07-30T07:01:27;99634.31;;;23.67;68.30
42761;BME280;31672;47.638;19.026;2023-07-30T07:06:31;99644.66;;;23.75;68.15
42761;BME280;31672;47.638;19.026;2023-07-30T07:11:34;99657.94;;;23.72;68.86
42761;BME280;31672;47.638;19.026;2023-07-30T07:16:38;99671.44;;;23.62;69.08
42761;BME280;31672;47.638;19.026;2023-07-30T07:21:42;99681.41;;;23.41;70.46
42761;BME280;31672;47.638;19.026;2023-07-30T07:26:45;99707.00;;;23.13;73.25
42761;BME280;31672;47.638;19.026;2023-07-30T07:31:49;99720.00;;;22.79;75.49
42761;BME280;31672;47.638;19.026;2023-07-30T07:36:53;99718.09;;;22.42;76.21
42761;BME280;31672;47.638;19.026;2023-07-30T07:41:56;99725.91;;;22.11;79.29
42761;BME280;31672;47.638;19.026;2023-07-30T07:47:01;99742.84;;;21.80;82.02
42761;BME280;31672;47.638;19.026;2023-07-30T07:52:05;99754.09;;;21.50;84.82
42761;BME280;31672;47.638;19.026;2023-07-30T07:57:08;99751.94;;;21.30;86.59
42761;BME280;31672;47.638;19.026;2023-07-30T08:02:12;99748.16;;;21.14;87.94
42761;BME280;31672;47.638;19.026;2023-07-30T08:07:16;99777.50;;;21.05;90.22
42761;BME280;31672;47.638;19.026;2023-07-30T08:12:20;99775.69;;;20.94;92.67
42761;BME280;31672;47.638;19.026;2023-07-30T08:17:23;99783.06;;;20.82;94.44
42761;BME280;31672;47.638;19.026;2023-07-30T08:22:27;99781.72;;;20.68;97.00
42761;BME280;31672;47.638;19.026;2023-07-30T08:27:30;99779.59;;;20.53;98.58
42761;BME280;31672;47.638;19.026;2023-07-30T08:32:35;99774.22;;;20.41;100.00
42761;BME280;31672;47.638;19.026;2023-07-30T08:37:42;99779.88;;;20.40;100.00
42761;BME280;31672;47.638;19.026;2023-07-30T08:42:46;99780.84;;;20.34;100.00
42761;BME280;31672;47.638;19.026;2023-07-30T08:47:50;99785.88;;;20.30;100.00
42761;BME280;31672;47.638;19.026;2023-07-30T08:52:55;99789.00;;;20.22;100.00
42761;BME280;31672;47.638;19.026;2023-07-30T08:58:01;99792.06;;;20.14;100.00
42761;BME280;31672;47.638;19.026;2023-07-30T09:03:07;99780.44;;;20.13;100.00
42761;BME280;31672;47.638;19.026;2023-07-30T09:08:12;99775.53;;;20.10;100.00
42761;BME280;31672;47.638;19.026;2023-07-30T09:13:21;99770.97;;;20.11;100.00
42761;BME280;31672;47.638;19.026;2023-07-30T09:18:26;99764.50;;;20.12;100.00
42761;BME280;31672;47.638;19.026;2023-07-30T09:23:30;99768.59;;;20.14;100.00
42761;BME280;31672;47.638;19.026;2023-07-30T09:28:34;99770.47;;;20.14;100.00
42761;BME280;31672;47.638;19.026;2023-07-30T09:33:41;99777.50;;;20.15;100.00
42761;BME280;31672;47.638;19.026;2023-07-30T09:38:45;99759.69;;;20.14;100.00
42761;BME280;31672;47.638;19.026;2023-07-30T09:43:58;99766.81;;;20.20;100.00
42761;BME280;31672;47.638;19.026;2023-07-30T09:49:03;99748.28;;;20.23;100.00
42761;BME280;31672;47.638;19.026;2023-07-30T09:54:13;99756.78;;;20.32;100.00
42761;BME280;31672;47.638;19.026;2023-07-30T09:59:16;99756.88;;;20.37;100.00
42761;BME280;31672;47.638;19.026;2023-07-30T10:04:21;99752.63;;;20.41;100.00
42761;BME280;31672;47.638;19.026;2023-07-30T10:09:30;99756.03;;;20.48;100.00
42761;BME280;31672;47.638;19.026;2023-07-30T10:14:35;99749.19;;;20.57;100.00
42761;BME280;31672;47.638;19.026;2023-07-30T10:19:39;99746.53;;;20.63;100.00
42761;BME280;31672;47.638;19.026;2023-07-30T10:25:04;99758.50;;;20.67;100.00
42761;BME280;31672;47.638;19.026;2023-07-30T10:30:16;99767.75;;;20.71;100.00
42761;BME280;31672;47.638;19.026;2023-07-30T10:35:42;99760.94;;;20.68;100.00
42761;BME280;31672;47.638;19.026;2023-07-30T10:41:14;99750.16;;;20.68;100.00
42761;BME280;31672;47.638;19.026;2023-07-30T10:46:20;99746.88;;;20.66;100.00
42761;BME280;31672;47.638;19.026;2023-07-30T10:51:23;99744.44;;;20.65;100.00
42761;BME280;31672;47.638;19.026;2023-07-30T10:56:27;99744.09;;;20.61;100.00
42761;BME280;31672;47.638;19.026;2023-07-30T11:01:31;99745.97;;;20.61;100.00
42761;BME280;31672;47.638;19.026;2023-07-30T11:06:34;99752.44;;;20.60;100.00
42761;BME280;31672;47.638;19.026;2023-07-30T11:11:40;99741.91;;;20.58;100.00
42761;BME280;31672;47.638;19.026;2023-07-30T11:17:04;99744.59;;;20.58;100.00
42761;BME280;31672;47.638;19.026;2023-07-30T11:22:07;99738.84;;;20.54;100.00
42761;BME280;31672;47.638;19.026;2023-07-30T11:27:13;99745.09;;;20.43;100.00
42761;BME280;31672;47.638;19.026;2023-07-30T11:32:17;99755.00;;;20.38;100.00
42761;BME280;31672;47.638;19.026;2023-07-30T11:37:22;99767.47;;;20.27;100.00
42761;BME280;31672;47.638;19.026;2023-07-30T11:42:26;99759.69;;;20.14;100.00
42761;BME280;31672;47.638;19.026;2023-07-30T11:47:33;99751.03;;;20.12;100.00
42761;BME280;31672;47.638;19.026;2023-07-30T11:52:54;99731.56;;;20.10;100.00
42761;BME280;31672;47.638;19.026;2023-07-30T11:58:00;99740.78;;;20.14;100.00
42761;BME280;31672;47.638;19.026;2023-07-30T12:03:06;99755.44;;;20.18;100.00
42761;BME280;31672;47.638;19.026;2023-07-30T12:08:16;99758.72;;;20.20;100.00
42761;BME280;31672;47.638;19.026;2023-07-30T12:13:21;99761.19;;;20.21;100.00
42761;BME280;31672;47.638;19.026;2023-07-30T12:18:26;99774.91;;;20.20;100.00
42761;BME280;31672;47.638;19.026;2023-07-30T12:23:30;99752.56;;;20.08;100.00
42761;BME280;31672;47.638;19.026;2023-07-30T12:28:34;99751.69;;;19.90;100.00
42761;BME280;31672;47.638;19.026;2023-07-30T12:33:38;99747.41;;;19.66;100.00
42761;BME280;31672;47.638;19.026;2023-07-30T12:38:41;99727.53;;;19.43;100.00
42761;BME280;31672;47.638;19.026;2023-07-30T12:43:49;99720.84;;;19.34;100.00
42761;BME280;31672;47.638;19.026;2023-07-30T12:48:52;99720.16;;;19.39;100.00
42761;BME280;31672;47.638;19.026;2023-07-30T12:53:56;99707.22;;;19.52;100.00
42761;BME280;31672;47.638;19.026;2023-07-30T12:59:00;99696.06;;;19.72;100.00
42761;BME280;31672;47.638;19.026;2023-07-30T13:04:03;99695.25;;;20.00;100.00
42761;BME280;31672;47.638;19.026;2023-07-30T13:09:07;99691.38;;;20.25;100.00
42761;BME280;31672;47.638;19.026;2023-07-30T13:14:11;99683.19;;;20.37;100.00
42761;BME280;31672;47.638;19.026;2023-07-30T13:19:15;99676.44;;;20.51;100.00
42761;BME280;31672;47.638;19.026;2023-07-30T13:24:18;99663.47;;;20.87;100.00
42761;BME280;31672;47.638;19.026;2023-07-30T13:29:22;99649.88;;;21.37;100.00
42761;BME280;31672;47.638;19.026;2023-07-30T13:34:25;99641.38;;;21.72;100.00
42761;BME280;31672;47.638;19.026;2023-07-30T15:35:34;99533.34;;;24.67;69.48
42761;BME280;31672;47.638;19.026;2023-07-30T15:40:38;99530.44;;;23.97;73.08
42761;BME280;31672;47.638;19.026;2023-07-30T15:45:42;99539.59;;;23.40;76.00
42761;BME280;31672;47.638;19.026;2023-07-30T15:50:49;99549.44;;;22.89;81.26
42761;BME280;31672;47.638;19.026;2023-07-30T15:55:53;99554.88;;;22.47;85.40
42761;BME280;31672;47.638;19.026;2023-07-30T16:18:50;99572.63;;;21.41;98.53
42761;BME280;31672;47.638;19.026;2023-07-30T16:23:54;99546.88;;;21.33;99.41
42761;BME280;31672;47.638;19.026;2023-07-30T16:28:57;99554.69;;;21.30;100.00
42761;BME280;31672;47.638;19.026;2023-07-30T16:34:01;99563.31;;;21.54;100.00
42761;BME280;31672;47.638;19.026;2023-07-30T16:39:04;99564.38;;;22.12;98.86
42761;BME280;31672;47.638;19.026;2023-07-30T16:44:08;99561.06;;;22.42;92.27
42761;BME280;31672;47.638;19.026;2023-07-30T16:49:12;99568.66;;;22.40;89.56
42761;BME280;31672;47.638;19.026;2023-07-30T16:54:16;99561.00;;;22.27;89.06
42761;BME280;31672;47.638;19.026;2023-07-30T16:59:19;99577.94;;;22.17;90.79
42761;BME280;31672;47.638;19.026;2023-07-30T17:04:23;99591.13;;;22.08;91.51
42761;BME280;31672;47.638;19.026;2023-07-30T17:09:27;99583.78;;;22.04;91.18
42761;BME280;31672;47.638;19.026;2023-07-30T17:14:31;99597.56;;;22.02;92.39
42761;BME280;31672;47.638;19.026;2023-07-30T17:19:34;99604.88;;;22.02;91.97
42761;BME280;31672;47.638;19.026;2023-07-30T17:24:38;99615.69;;;22.02;91.96
42761;BME280;31672;47.638;19.026;2023-07-30T17:29:43;99610.00;;;22.03;92.91
42761;BME280;31672;47.638;19.026;2023-07-30T17:34:47;99611.94;;;22.08;94.25
42761;BME280;31672;47.638;19.026;2023-07-30T17:39:50;99614.34;;;22.04;93.27
42761;BME280;31672;47.638;19.026;2023-07-30T17:44:54;99624.84;;;21.96;92.16
42761;BME280;31672;47.638;19.026;2023-07-30T17:49:57;99629.81;;;21.82;92.13
42761;BME280;31672;47.638;19.026;2023-07-30T17:55:01;99623.41;;;21.61;92.98
42761;BME280;31672;47.638;19.026;2023-07-30T18:00:07;99641.84;;;21.42;94.52
42761;BME280;31672;47.638;19.026;2023-07-30T18:05:12;99652.94;;;21.24;95.79
42761;BME280;31672;47.638;19.026;2023-07-30T18:10:22;99648.66;;;21.06;97.19
42761;BME280;31672;47.638;19.026;2023-07-30T18:15:26;99656.88;;;20.94;98.76
42761;BME280;31672;47.638;19.026;2023-07-30T18:20:30;99655.63;;;20.85;99.92
42761;BME280;31672;47.638;19.026;2023-07-30T18:25:35;99665.00;;;20.77;100.00
42761;BME280;31672;47.638;19.026;2023-07-30T18:30:38;99678.31;;;20.67;100.00
42761;BME280;31672;47.638;19.026;2023-07-30T18:35:42;99664.44;;;20.58;100.00
42761;BME280;31672;47.638;19.026;2023-07-30T18:40:46;99670.81;;;20.52;100.00
42761;BME280;31672;47.638;19.026;2023-07-30T18:45:49;99676.38;;;20.46;100.00
42761;BME280;31672;47.638;19.026;2023-07-30T18:50:53;99678.63;;;20.37;100.00
42761;BME280;31672;47.638;19.026;2023-07-30T18:55:56;99685.97;;;20.25;100.00
42761;BME280;31672;47.638;19.026;2023-07-30T19:01:00;99695.53;;;20.16;100.00
42761;BME280;31672;47.638;19.026;2023-07-30T19:06:03;99705.88;;;20.07;100.00
42761;BME280;31672;47.638;19.026;2023-07-30T19:11:07;99721.88;;;19.97;100.00
42761;BME280;31672;47.638;19.026;2023-07-30T19:16:10;99717.44;;;19.91;100.00
42761;BME280;31672;47.638;19.026;2023-07-30T19:21:16;99725.06;;;19.94;100.00
42761;BME280;31672;47.638;19.026;2023-07-30T19:26:20;99715.34;;;19.93;100.00
42761;BME280;31672;47.638;19.026;2023-07-30T19:31:23;99714.53;;;19.92;100.00
42761;BME280;31672;47.638;19.026;2023-07-30T19:36:28;99709.59;;;19.89;100.00
42761;BME280;31672;47.638;19.026;2023-07-30T19:41:32;99711.38;;;19.84;100.00
42761;BME280;31672;47.638;19.026;2023-07-30T19:46:35;99715.63;;;19.80;100.00
42761;BME280;31672;47.638;19.026;2023-07-30T19:51:40;99716.44;;;19.80;100.00
42761;BME280;31672;47.638;19.026;2023-07-30T19:56:44;99713.97;;;19.78;100.00
42761;BME280;31672;47.638;19.026;2023-07-30T20:01:47;99713.66;;;19.75;100.00
42761;BME280;31672;47.638;19.026;2023-07-30T20:06:51;99711.31;;;19.67;100.00
42761;BME280;31672;47.638;19.026;2023-07-30T20:11:57;99706.16;;;19.65;100.00
42761;BME280;31672;47.638;19.026;2023-07-30T20:17:01;99689.06;;;19.60;100.00
42761;BME280;31672;47.638;19.026;2023-07-30T20:22:04;99708.75;;;19.60;100.00
42761;BME280;31672;47.638;19.026;2023-07-30T20:27:08;99699.25;;;19.58;100.00
42761;BME280;31672;47.638;19.026;2023-07-30T20:32:12;99699.13;;;19.52;100.00
42761;BME280;31672;47.638;19.026;2023-07-30T20:37:15;99714.63;;;19.45;100.00
42761;BME280;31672;47.638;19.026;2023-07-30T20:42:19;99725.53;;;19.39;100.00
42761;BME280;31672;47.638;19.026;2023-07-30T20:47:25;99722.25;;;19.37;100.00
42761;BME280;31672;47.638;19.026;2023-07-30T20:52:28;99744.63;;;19.37;100.00
42761;BME280;31672;47.638;19.026;2023-07-30T20:57:32;99738.06;;;19.33;100.00
42761;BME280;31672;47.638;19.026;2023-07-30T21:02:36;99746.63;;;19.30;100.00
42761;BME280;31672;47.638;19.026;2023-07-30T21:07:40;99751.56;;;19.21;100.00
42761;BME280;31672;47.638;19.026;2023-07-30T21:12:44;99755.31;;;19.20;100.00
42761;BME280;31672;47.638;19.026;2023-07-30T21:17:48;99756.13;;;19.21;100.00
42761;BME280;31672;47.638;19.026;2023-07-30T21:22:51;99761.50;;;19.21;100.00
42761;BME280;31672;47.638;19.026;2023-07-30T21:27:55;99750.75;;;19.21;100.00
42761;BME280;31672;47.638;19.026;2023-07-30T21:32:59;99758.22;;;19.19;100.00
42761;BME280;31672;47.638;19.026;2023-07-30T21:38:05;99758.94;;;19.14;100.00
42761;BME280;31672;47.638;19.026;2023-07-30T21:43:09;99753.56;;;19.14;100.00
42761;BME280;31672;47.638;19.026;2023-07-30T21:48:12;99754.50;;;19.20;100.00
42761;BME280;31672;47.638;19.026;2023-07-30T21:53:16;99750.13;;;19.19;100.00
42761;BME280;31672;47.638;19.026;2023-07-30T21:58:21;99761.75;;;19.31;100.00
42761;BME280;31672;47.638;19.026;2023-07-30T22:03:26;99754.56;;;19.37;100.00
42761;BME280;31672;47.638;19.026;2023-07-30T22:08:30;99748.16;;;19.38;100.00
42761;BME280;31672;47.638;19.026;2023-07-30T22:13:34;99758.19;;;19.42;100.00
42761;BME280;31672;47.638;19.026;2023-07-30T22:18:38;99766.28;;;19.42;100.00
42761;BME280;31672;47.638;19.026;2023-07-30T22:23:44;99765.72;;;19.40;100.00
42761;BME280;31672;47.638;19.026;2023-07-30T22:28:48;99769.47;;;19.39;100.00
42761;BME280;31672;47.638;19.026;2023-07-30T22:33:51;99769.91;;;19.36;100.00
42761;BME280;31672;47.638;19.026;2023-07-30T22:38:55;99763.72;;;19.24;100.00
42761;BME280;31672;47.638;19.026;2023-07-30T22:43:59;99756.13;;;19.21;100.00
42761;BME280;31672;47.638;19.026;2023-07-30T22:49:03;99761.28;;;19.22;99.47
42761;BME280;31672;47.638;19.026;2023-07-30T22:54:06;99756.81;;;19.28;97.18
42761;BME280;31672;47.638;19.026;2023-07-30T22:59:10;99739.25;;;19.37;94.68
42761;BME280;31672;47.638;19.026;2023-07-30T23:04:14;99752.91;;;19.47;93.39
42761;BME280;31672;47.638;19.026;2023-07-30T23:09:20;99753.53;;;19.49;93.32
42761;BME280;31672;47.638;19.026;2023-07-30T23:14:25;99751.53;;;19.45;93.84
42761;BME280;31672;47.638;19.026;2023-07-30T23:19:28;99747.34;;;19.37;94.97
42761;BME280;31672;47.638;19.026;2023-07-30T23:24:33;99754.69;;;19.30;96.28
42761;BME280;31672;47.638;19.026;2023-07-30T23:29:36;99758.56;;;19.22;96.32
42761;BME280;31672;47.638;19.026;2023-07-30T23:34:40;99747.94;;;19.16;96.85
42761;BME280;31672;47.638;19.026;2023-07-30T23:39:44;99754.63;;;19.13;97.04
42761;BME280;31672;47.638;19.026;2023-07-30T23:44:50;99751.69;;;19.15;96.23
42761;BME280;31672;47.638;19.026;2023-07-30T23:49:56;99752.72;;;19.14;96.16
42761;BME280;31672;47.638;19.026;2023-07-30T23:55:00;99752.63;;;19.09;96.67
